Terminal Aerodrome Forecast
Issued by NWS Wilmington, OH

Home | Current Version | Previous Version | Text Only | Print | Product List | Glossary On
Versions: 1 2 3 4 5 6 7 8 9 10 11 12 13 14 15 16 17 18 19 20 21 22 23 24 25 26 27 28
000
FTUS41 KILN 212300
TAFCVG
TAF
KCVG 212337Z 2200/2306 10005KT P6SM BKN250
     FM221000 13005KT P6SM VCSH BKN025
     FM221600 13008KT P6SM BKN025
     FM222000 13009KT P6SM SCT030 BKN080
     FM230200 14009KT 5SM -SHRA BR BKN030=

USA.gov is the U.S. government's official web portal to all federal, state and local government web resources and services.